Latest Weather Observations for Wilcannia Airport

IDN60801

Issued at 6:32 am EST Thursday 27 July 2017 (issued every 30 minutes, with the page automatically refreshed every 10 minutes)

About weather observations | Map of weather stations | Latest weather observations for NSW | Other Formats
Station Details ID: 046012 Name: WILCANNIA AERODROME AWS Lat: -31.52 Lon: 143.38 Height: 94.3 m
Data from the previous 72 hours. | See also: Recent months at Wilcannia Airport
Date/Time
EST
Temp
°C
App
Temp
°C
Dew
Point
°C
Rel
Hum
%
Delta-T
°C
Wind Press
QNH
hPa
Press
MSL
hPa
Rain since
9am
mm
Dir  Spd
km/h
Gust
km/h
Spd
kts
Gust
kts
27/06:30am 3.5 -0.9 0.6 81 1.1 NE 13 15 7 8 1023.5 1023.7 0.0
27/06:00am 3.8 -0.5 0.8 81 1.1 NE 13 13 7 7 1023.3 1023.5 0.0
27/05:30am 4.4 0.1 1.1 79 1.3 NE 13 13 7 7 1023.3 1023.5 0.0
27/05:00am 4.1 0.2 1.1 81 1.2 ENE 11 13 6 7 1023.2 1023.4 0.0
27/04:30am 2.5 -1.1 0.6 87 0.7 ENE 9 11 5 6 1023.2 1023.4 0.0
27/04:00am 1.8 -1.9 -2.7 72 1.5 NE 7 7 4 4 1023.5 1023.7 0.0
27/03:30am 4.1 0.6 1.0 80 1.2 ENE 9 9 5 5 1023.6 1023.8 0.0
27/03:00am 4.2 0.2 0.2 75 1.5 ENE 11 13 6 7 1023.4 1023.6 0.0
27/02:30am 3.4 -0.7 -0.1 78 1.3 E 11 13 6 7 1023.4 1023.6 0.0
27/02:00am 4.3 1.1 0.5 76 1.5 SE 7 9 4 5 1024.1 1024.2 0.0
27/01:30am 5.4 1.4 0.6 71 1.9 SSE 11 11 6 6 1024.3 1024.4 0.0
27/01:00am 7.3 3.1 1.6 67 2.3 SSE 13 15 7 8 1024.3 1024.4 0.0
27/12:30am 6.6 2.5 2.1 73 1.8 SSE 13 15 7 8 1024.4 1024.5 0.0
27/12:00am 5.6 1.3 1.2 73 1.7 SSE 13 13 7 7 1024.8 1024.9 0.0
 
Date/Time
EST
Temp
°C
App
Temp
°C
Dew
Point
°C
Rel
Hum
%
Delta-T
°C
Wind Press
QNH
hPa
Press
MSL
hPa
Rain since
9am
mm
Dir  Spd
km/h
Gust
km/h
Spd
kts
Gust
kts
26/11:30pm 5.8 1.6 -0.7 63 2.5 S 11 13 6 7 1024.9 1025.0 0.0
26/11:00pm 6.9 3.3 0.8 65 2.4 SSW 9 11 5 6 1024.9 1025.0 0.0
26/10:30pm 6.9 3.3 0.4 63 2.6 S 9 9 5 5 1024.7 1024.8 0.0
26/10:00pm 8.8 4.6 1.7 61 2.9 SSW 13 13 7 7 1024.6 1024.7 0.0
26/09:30pm 8.9 5.1 2.0 62 2.9 SSW 11 13 6 7 1024.1 1024.2 0.0
26/09:00pm 7.1 3.3 -0.8 57 3.0 S 9 11 5 6 1024.1 1024.2 0.0
26/08:30pm 10.1 6.0 2.0 57 3.4 SSW 13 13 7 7 1024.2 1024.3 0.0
26/08:00pm 10.3 6.2 2.4 58 3.4 S 13 13 7 7 1024.3 1024.4 0.0
26/07:30pm 9.7 5.7 0.6 53 3.7 S 11 13 6 7 1024.0 1024.1 0.0
26/07:00pm 11.6 8.2 1.8 51 4.2 SSW 9 11 5 6 1023.7 1023.9 0.0
26/06:30pm 13.3 9.6 2.2 47 4.9 SSW 11 13 6 7 1023.4 1023.6 0.0
26/06:00pm 14.9 11.1 1.8 41 5.7 SSW 11 13 6 7 1022.9 1023.1 0.0
26/05:30pm 17.3 13.6 2.1 36 6.9 SSW 11 15 6 8 1022.5 1022.7 0.0
26/05:00pm 18.3 14.6 2.2 34 7.3 S 11 17 6 9 1022.4 1022.5 0.0
26/04:30pm 19.1 15.0 2.5 33 7.7 SSW 13 20 7 11 1022.2 1022.3 0.0
26/04:00pm 19.3 15.3 3.1 34 7.6 SSW 13 19 7 10 1022.2 1022.3 0.0
26/03:30pm 19.6 15.6 2.9 33 7.8 SSW 13 20 7 11 1022.2 1022.3 0.0
26/03:00pm 19.3 15.0 3.1 34 7.6 SSW 15 24 8 13 1022.2 1022.3 0.0
26/02:30pm 19.7 15.9 3.8 35 7.6 SW 13 20 7 11 1022.2 1022.3 0.0
26/02:00pm 18.9 15.0 3.5 36 7.2 SSW 13 24 7 13 1022.3 1022.4 0.0
26/01:30pm 18.9 14.5 4.7 39 6.9 SSW 17 26 9 14 1022.6 1022.8 0.0
26/01:00pm 18.6 14.1 4.4 39 6.8 SSW 17 28 9 15 1022.9 1023.1 0.0
26/12:30pm 18.2 13.9 5.1 42 6.3 S 17 24 9 13 1023.4 1023.6 0.0
26/12:00pm 17.8 13.2 5.4 44 6.0 S 19 24 10 13 1023.8 1024.0 0.0
26/11:30am 17.5 13.0 6.1 47 5.6 SSW 19 28 10 15 1024.3 1024.4 0.0
26/11:00am 16.7 12.2 5.9 49 5.2 S 19 28 10 15 1024.5 1024.6 0.0
26/10:30am 16.0 11.3 6.2 52 4.8 S 20 28 11 15 1024.7 1024.8 0.0
26/10:00am 15.7 11.3 6.4 54 4.5 SSW 19 24 10 13 1024.7 1024.8 0.0
26/09:30am 14.5 9.4 5.8 56 4.2 SSW 22 28 12 15 1024.5 1024.6 0.0
26/09:00am 13.4 9.0 4.6 55 4.0 SW 17 26 9 14 1024.3 1024.4 0.0
26/08:30am 11.4 7.5 3.2 57 3.6 SW 13 15 7 8 1024.4 1024.5 0.0
26/08:00am 8.7 5.0 2.1 63 2.7 WSW 11 13 6 7 1024.0 1024.1 0.0
26/07:30am 7.3 3.4 1.0 64 2.5 WSW 11 13 6 7 1023.5 1023.7 0.0
26/07:00am 8.4 4.1 1.3 61 2.9 WSW 13 15 7 8 1022.8 1023.0 0.0
26/06:30am 9.3 5.1 1.5 58 3.2 SW 13 13 7 7 1022.4 1022.5 0.0
26/06:00am 9.0 4.7 1.0 57 3.3 WSW 13 15 7 8 1022.0 1022.1 0.0
26/05:30am 9.9 5.6 0.8 53 3.7 WSW 13 13 7 7 1021.5 1021.6 0.0
26/05:00am 10.6 6.3 0.9 51 4.0 SW 13 15 7 8 1021.2 1021.3 0.0
26/04:30am 11.3 7.0 1.0 49 4.3 SW 13 15 7 8 1020.9 1021.0 0.0
26/04:00am 11.3 7.3 0.4 47 4.5 WSW 11 13 6 7 1020.8 1020.9 0.0
26/03:30am 11.8 8.1 0.0 44 4.9 WSW 9 11 5 6 1020.8 1020.9 0.0
26/03:00am 12.4 8.4 0.2 43 5.1 WSW 11 11 6 6 1020.8 1020.9 0.0
26/02:30am 12.4 9.1 -0.1 42 5.2 SW 7 9 4 5 1020.6 1020.7 0.0
26/02:00am 12.7 8.9 -0.5 40 5.4 SW 9 11 5 6 1020.7 1020.8 0.0
26/01:30am 13.4 9.3 -0.3 39 5.7 SSW 11 11 6 6 1020.8 1020.9 0.0
26/01:00am 13.5 9.3 -0.9 37 5.9 SSW 11 13 6 7 1020.7 1020.8 0.0
26/12:30am 14.4 9.8 -0.8 35 6.3 SSW 13 17 7 9 1020.8 1020.9 0.0
26/12:00am 14.3 9.6 -2.1 32 6.6 SSW 13 15 7 8 1020.7 1020.8 0.0
 
Date/Time
EST
Temp
°C
App
Temp
°C
Dew
Point
°C
Rel
Hum
%
Delta-T
°C
Wind Press
QNH
hPa
Press
MSL
hPa
Rain since
9am
mm
Dir  Spd
km/h
Gust
km/h
Spd
kts
Gust
kts
25/11:30pm 15.5 10.7 -2.9 28 7.4 SW 13 15 7 8 1020.7 1020.8 0.0
25/11:00pm 17.1 10.8 -3.6 24 8.3 WSW 20 33 11 18 1020.2 1020.3 0.0
25/10:30pm 17.4 13.0 -2.8 25 8.3 NNW 11 11 6 6 1019.5 1019.6 0.0
25/10:00pm 17.9 13.1 -2.9 24 8.5 NW 13 15 7 8 1019.5 1019.6 0.0
25/09:30pm 17.5 12.2 -3.3 24 8.4 NW 15 17 8 9 1019.4 1019.5 0.0
25/09:00pm 18.3 13.4 -3.8 22 8.9 NW 13 15 7 8 1019.3 1019.4 0.0
25/08:30pm 18.6 13.3 -3.5 22 9.0 NW 15 17 8 9 1019.4 1019.5 0.0
25/08:00pm 18.7 13.8 -3.4 22 9.0 NW 13 15 7 8 1019.2 1019.3 0.0
25/07:30pm 18.9 14.0 -3.3 22 9.1 NW 13 15 7 8 1019.2 1019.3 0.0
25/07:00pm 18.0 13.0 -4.0 22 8.8 NW 13 15 7 8 1018.9 1019.0 0.0
25/06:30pm 19.6 14.9 -5.3 18 9.9 NW 11 13 6 7 1018.7 1018.8 0.0
25/06:00pm 21.4 15.8 -6.3 15 11.0 WNW 15 19 8 10 1018.5 1018.6 0.0
25/05:30pm 23.0 15.7 -5.9 14 11.7 WNW 24 37 13 20 1018.3 1018.4 0.0
25/05:00pm 23.9 16.3 -5.2 14 12.0 WNW 26 37 14 20 1018.3 1018.4 0.0
25/04:30pm 24.4 15.7 -4.8 14 12.3 WNW 32 43 17 23 1018.4 1018.5 0.0
25/04:00pm 25.0 16.3 -5.3 13 12.6 WNW 32 43 17 23 1018.5 1018.6 0.0
25/03:30pm 25.4 17.9 -5.0 13 12.8 NW 26 35 14 19 1018.6 1018.7 0.0
25/03:00pm 25.6 17.6 -5.9 12 13.1 NW 28 37 15 20 1018.7 1018.8 0.0
25/02:30pm 25.4 17.5 -5.0 13 12.8 NW 28 41 15 22 1019.0 1019.1 0.0
25/02:00pm 24.8 16.9 -4.5 14 12.4 NNW 28 41 15 22 1019.5 1019.6 0.0
25/01:30pm 24.6 17.6 -3.7 15 12.2 NNW 24 37 13 20 1020.1 1020.2 0.0
25/01:00pm 23.5 16.2 -2.9 17 11.4 NNW 26 32 14 17 1020.7 1020.8 0.0
25/12:30pm 22.5 15.0 -1.6 20 10.6 NNW 28 39 15 21 1021.4 1021.5 0.0
25/12:00pm 21.4 13.6 -0.6 23 9.7 NNW 30 39 16 21 1022.2 1022.3 0.0
25/11:30am 21.2 14.3 -0.1 24 9.5 NNW 26 35 14 19 1022.7 1022.9 0.0
25/11:00am 20.1 14.5 0.0 26 8.9 N 19 30 10 16 1023.1 1023.3 0.0
25/10:30am 19.0 12.9 0.1 28 8.3 N 22 32 12 17 1023.4 1023.6 0.0
25/10:00am 18.6 13.0 0.2 29 8.1 NNE 19 24 10 13 1023.5 1023.7 0.0
25/09:30am 16.2 10.6 -0.1 33 7.0 NNE 19 28 10 15 1023.4 1023.6 0.0
25/09:00am 14.2 8.4 -0.3 37 6.0 N 20 28 11 15 1023.2 1023.4 0.0
25/08:30am 13.0 7.2 0.1 41 5.4 NNE 20 30 11 16 1022.9 1023.1 0.0
25/08:00am 12.3 6.5 -0.2 42 5.1 N 20 30 11 16 1022.8 1023.0 0.0
25/07:30am 10.8 5.8 1.4 52 4.0 N 17 22 9 12 1022.7 1022.9 0.0
25/07:28am 10.5 5.5 1.6 54 3.7 N 17 22 9 12 1022.7 1022.9 0.0
25/07:00am 5.4 0.3 -2.0 59 2.7 NNE 15 17 8 9 1022.7 1022.9 0.0
25/06:30am 5.2 0.9 -1.5 62 2.5 NNE 11 13 6 7 1022.6 1022.8 0.0
25/06:00am 4.7 0.5 -0.7 68 2.0 N 11 11 6 6 1022.4 1022.5 0.0
25/05:30am 4.2 -0.5 -1.6 66 2.1 N 13 15 7 8 1022.1 1022.2 0.0
25/05:00am 3.8 -1.0 -2.8 62 2.3 NNE 13 15 7 8 1021.7 1021.8 0.0
25/04:30am 4.1 -0.7 -2.5 62 2.3 NE 13 13 7 7 1021.7 1021.8 0.0
25/04:00am 4.3 -0.1 -2.5 61 2.4 ENE 11 15 6 8 1021.7 1021.8 0.0
25/03:30am 4.6 0.2 -2.3 61 2.5 ENE 11 13 6 7 1021.7 1021.8 0.0
25/03:00am 5.4 0.8 -1.3 62 2.5 NE 13 13 7 7 1021.7 1021.8 0.0
25/02:30am 4.5 0.6 -1.7 64 2.3 NNE 9 11 5 6 1021.8 1021.9 0.0
25/02:00am 4.3 0.8 -1.5 66 2.1 NE 7 9 4 5 1021.9 1022.0 0.0
25/01:30am 4.7 1.2 -1.5 64 2.3 NE 7 7 4 4 1022.1 1022.2 0.0
25/01:00am 5.2 1.7 -1.5 62 2.5 ENE 7 9 4 5 1022.2 1022.3 0.0
25/12:30am 4.8 2.5 -2.3 60 2.6 CALM 0 0 0 0 1022.2 1022.3 0.0
25/12:00am 5.2 3.0 -1.3 63 2.4 CALM 0 0 0 0 1022.4 1022.5 0.0
 
Date/Time
EST
Temp
°C
App
Temp
°C
Dew
Point
°C
Rel
Hum
%
Delta-T
°C
Wind Press
QNH
hPa
Press
MSL
hPa
Rain since
9am
mm
Dir  Spd
km/h
Gust
km/h
Spd
kts
Gust
kts
24/11:30pm 5.2 3.0 -1.3 63 2.4 CALM 0 0 0 0 1022.5 1022.7 0.0
24/11:00pm 6.4 4.2 -1.7 56 3.0 CALM 0 0 0 0 1022.6 1022.8 0.0
24/10:30pm 7.5 4.7 -0.2 58 3.0 N 4 9 2 5 1022.6 1022.8 0.0
24/10:00pm 7.9 4.2 -0.3 56 3.2 N 9 11 5 6 1022.5 1022.7 0.0
24/09:30pm 9.5 6.0 1.4 57 3.4 NNE 9 13 5 7 1022.4 1022.5 0.0
24/09:00pm 8.4 4.2 -1.1 51 3.7 N 11 13 6 7 1022.5 1022.7 0.0
24/08:30pm 8.9 4.8 0.1 54 3.5 N 11 13 6 7 1022.3 1022.4 0.0
24/08:00pm 10.1 6.2 1.0 53 3.7 N 11 13 6 7 1022.3 1022.4 0.0
24/07:30pm 9.0 4.7 -1.7 47 4.1 N 11 11 6 6 1022.1 1022.2 0.0
24/07:00pm 9.8 5.8 -1.9 44 4.5 N 9 11 5 6 1022.2 1022.3 0.0
24/06:30pm 11.5 7.9 -2.0 39 5.3 NNW 7 9 4 5 1022.0 1022.1 0.0
24/06:00pm 15.1 11.8 -0.2 35 6.4 NW 7 7 4 4 1021.8 1021.9 0.0
24/05:30pm 18.0 14.4 0.6 31 7.7 WNW 9 15 5 8 1021.8 1021.9 0.0
24/05:00pm 19.0 14.3 0.6 29 8.2 W 15 20 8 11 1021.8 1021.9 0.0
24/04:30pm 19.7 15.7 0.7 28 8.5 WNW 11 15 6 8 1021.5 1021.6 0.0
24/04:00pm 19.7 15.4 0.7 28 8.5 NW 13 19 7 10 1021.2 1021.3 0.0
24/03:30pm 19.9 16.0 0.9 28 8.6 W 11 19 6 10 1021.5 1021.6 0.0
24/03:00pm 19.9 15.5 0.4 27 8.7 NW 13 20 7 11 1021.6 1021.7 0.0
24/02:30pm 19.7 16.8 1.7 30 8.2 N 6 11 3 6 1021.8 1021.9 0.0
24/02:00pm 19.3 16.3 2.2 32 7.9 WSW 7 13 4 7 1022.3 1022.4 0.0
24/01:30pm 18.9 15.7 3.1 35 7.4 NNW 9 15 5 8 1022.9 1023.1 0.0
24/01:00pm 18.4 15.2 3.1 36 7.1 NNW 9 15 5 8 1023.3 1023.5 0.0
24/12:30pm 17.7 14.4 2.5 36 7.0 NW 9 17 5 9 1023.6 1023.8 0.0
24/12:00pm 17.4 14.5 4.4 42 6.1 NE 9 13 5 7 1024.4 1024.5 0.0
24/11:30am 17.0 14.4 4.3 43 6.0 NNE 7 11 4 6 1024.9 1025.0 0.0
24/11:00am 16.1 13.2 4.8 47 5.3 ESE 9 13 5 7 1024.9 1025.0 0.0
24/10:30am 15.2 12.7 4.6 49 5.0 S 7 11 4 6 1025.2 1025.3 0.0
24/10:00am 13.9 11.8 3.9 51 4.5 SW 4 7 2 4 1025.2 1025.3 0.0
24/09:30am 11.6 8.9 2.4 53 4.0 SW 6 9 3 5 1024.9 1025.0 0.0
24/09:00am 9.5 6.5 1.7 58 3.2 WSW 7 9 4 5 1024.6 1024.7 0.0
24/08:30am 7.7 4.6 1.3 64 2.6 WSW 7 11 4 6 1024.4 1024.5 0.0
24/08:00am 4.8 1.1 0.2 72 1.8 W 9 11 5 6 1024.1 1024.2 0.0
24/07:30am 2.3 -1.0 -1.5 76 1.4 WSW 6 9 3 5 1023.6 1023.8 0.0
24/07:00am 2.4 -1.3 -2.9 68 1.8 SW 7 11 4 6 1023.0 1023.2 0.0

Other Formats:

Comma delimited format used in spreadsheet applications
http://www.bom.gov.au/fwo/IDN60801/IDN60801.95695.axf

JavaScript Object Notation format (JSON) in row-major order
http://www.bom.gov.au/fwo/IDN60801/IDN60801.95695.json